Time;durP1;ratioP1;P1;durP2;ratioP2;P2;SDS_P1;SDS_P2;PMS_P1;PMS_P2;Temp;Humidity;BMP_temperature;BMP_pressure;BME280_temperature;BME280_humidity;BME280_pressure;Samples;Min_cycle;Max_cycle;Signal;HPM_P1;HPM_P2
2021/10/01 00:00:50;;;;;;;1.23;0.22;;;;;;;15.52;90.88;100033.25;4973848;28;20027;-75
2021/10/01 00:03:15;;;;;;;2.30;0.20;;;;;;;15.50;90.73;100033.56;4965365;28;20126;-75
2021/10/01 00:05:42;;;;;;;0.57;0.28;;;;;;;15.57;90.89;100018.56;4955850;28;20046;-75
2021/10/01 00:08:08;;;;;;;0.20;0.20;;;;;;;15.54;90.95;100012.53;4948511;28;21650;-75
2021/10/01 00:10:34;;;;;;;5.47;0.45;;;;;;;15.49;90.80;100006.31;4969989;28;20093;-75
2021/10/01 00:13:00;;;;;;;2.60;0.40;;;;;;;15.45;91.21;100006.13;4937041;28;20066;-75
2021/10/01 00:15:27;;;;;;;0.47;0.30;;;;;;;15.49;90.74;100001.66;4962238;28;20040;-74
2021/10/01 00:17:53;;;;;;;2.67;0.95;;;;;;;15.44;91.06;99987.97;4965553;28;20041;-75
2021/10/01 00:20:18;;;;;;;2.35;0.65;;;;;;;15.41;91.02;99987.78;4968960;28;20560;-74
2021/10/01 00:22:44;;;;;;;0.75;0.35;;;;;;;15.44;91.01;100012.75;4968064;28;20041;-75
2021/10/01 00:25:09;;;;;;;1.55;0.43;;;;;;;15.47;90.71;99992.84;4966064;28;20031;-75
2021/10/01 00:27:35;;;;;;;3.35;0.47;;;;;;;15.44;90.68;99974.19;4966617;28;20033;-74
2021/10/01 00:30:00;;;;;;;1.00;0.68;;;;;;;15.50;90.61;99983.97;4968332;28;20118;-74
2021/10/01 00:32:26;;;;;;;1.30;0.30;;;;;;;15.56;90.72;99997.66;4945837;28;20038;-75
2021/10/01 00:34:52;;;;;;;1.55;0.45;;;;;;;15.50;90.81;99986.72;4969265;28;20035;-74
2021/10/01 00:37:18;;;;;;;0.57;0.30;;;;;;;15.46;90.74;99968.38;4972153;28;20112;-75
2021/10/01 00:39:43;;;;;;;1.63;0.38;;;;;;;15.42;90.83;99968.19;4959690;28;20473;-74
2021/10/01 00:42:09;;;;;;;0.80;0.30;;;;;;;15.49;90.80;99963.06;4949058;28;20050;-74
2021/10/01 00:44:34;;;;;;;0.20;0.10;;;;;;;15.52;90.60;99967.97;4936098;28;20037;-74
2021/10/01 00:47:00;;;;;;;0.20;0.10;;;;;;;15.52;90.62;99967.97;4969943;28;20018;-75
2021/10/01 00:49:25;;;;;;;0.45;0.20;;;;;;;15.54;90.80;99971.22;4975814;28;20496;-74
2021/10/01 00:51:52;;;;;;;0.10;0.08;;;;;;;15.62;90.62;99971.59;4959956;28;20489;-76
2021/10/01 00:54:18;;;;;;;0.25;0.08;;;;;;;15.59;90.77;99972.22;4968000;28;20038;-74
2021/10/01 00:56:44;;;;;;;0.50;0.17;;;;;;;15.58;90.88;99956.81;4939930;28;20042;-75
2021/10/01 00:59:09;;;;;;;0.93;0.20;;;;;;;15.56;90.75;99951.59;4944589;28;20367;-75
2021/10/01 01:01:35;;;;;;;1.45;0.30;;;;;;;15.53;90.80;99961.31;4951353;28;20035;-75
2021/10/01 01:04:04;;;;;;;1.33;0.30;;;;;;;15.53;91.25;99939.25;4949521;28;20424;-74
2021/10/01 01:06:45;;;;;;;2.15;0.30;;;;;;;15.49;91.53;99929.16;4956386;28;20417;-74
2021/10/01 01:09:27;;;;;;;6.93;0.38;;;;;;;15.57;91.00;99935.91;4975240;28;20034;-74
2021/10/01 01:12:03;;;;;;;0.85;0.10;;;;;;;15.59;91.31;99922.63;4955834;28;20045;-77
2021/10/01 01:14:52;;;;;;;0.13;0.10;;;;;;;15.56;91.26;99924.03;4969138;28;21298;-74
2021/10/01 01:17:48;;;;;;;0.47;0.13;;;;;;;15.57;90.94;99919.38;4973324;28;20066;-73
2021/10/01 01:20:39;;;;;;;0.90;0.20;;;;;;;15.63;91.04;99920.88;4971840;28;20042;-74
2021/10/01 01:23:32;;;;;;;0.63;0.47;;;;;;;15.62;91.17;99924.75;4971201;28;20050;-73
2021/10/01 01:26:14;;;;;;;0.20;0.20;;;;;;;15.68;90.65;99926.25;4955994;28;20192;-74
2021/10/01 01:28:54;;;;;;;0.73;0.17;;;;;;;15.61;90.81;99921.19;4958135;28;20058;-74
2021/10/01 01:31:46;;;;;;;1.25;0.10;;;;;;;15.60;91.02;99935.28;4975611;28;20031;-77
2021/10/01 01:34:24;;;;;;;3.90;0.28;;;;;;;15.57;91.24;99924.88;4961111;28;20023;-77
2021/10/01 01:36:53;;;;;;;0.40;0.08;;;;;;;15.61;91.53;99912.09;4980035;28;20051;-77
2021/10/01 01:39:19;;;;;;;1.65;0.30;;;;;;;15.63;91.34;99901.56;4978606;28;20042;-77
2021/10/01 01:41:46;;;;;;;0.38;0.00;;;;;;;15.61;91.23;99898.31;4952944;28;20030;-75
2021/10/01 01:44:12;;;;;;;1.23;0.40;;;;;;;15.61;91.31;99907.41;4966643;28;20031;-74
2021/10/01 01:46:40;;;;;;;3.75;0.10;;;;;;;15.61;91.19;99903.81;4939212;28;20065;-74
2021/10/01 01:49:08;;;;;;;1.00;0.20;;;;;;;15.63;91.14;99879.53;4973489;28;20076;-76
2021/10/01 01:51:34;;;;;;;5.22;0.30;;;;;;;15.61;90.93;99892.78;4941492;28;20027;-74
2021/10/01 01:54:00;;;;;;;2.10;0.30;;;;;;;15.56;91.08;99865.38;4956040;28;20177;-76
2021/10/01 01:56:29;;;;;;;0.85;0.30;;;;;;;15.59;90.94;99856.47;4974192;28;20509;-76
2021/10/01 01:58:55;;;;;;;2.13;0.80;;;;;;;15.50;90.82;99856.41;4950659;28;20756;-77
2021/10/01 02:01:21;;;;;;;8.07;0.90;;;;;;;15.45;90.76;99834.47;4955344;28;20068;-76
2021/10/01 02:03:48;;;;;;;7.20;0.85;;;;;;;15.37;90.63;99838.81;4971771;28;20037;-76
2021/10/01 02:06:15;;;;;;;4.78;0.80;;;;;;;15.34;90.78;99831.97;4949388;28;20031;-75
2021/10/01 02:08:41;;;;;;;4.50;1.02;;;;;;;15.40;90.32;99838.19;4972789;28;20034;-77
2021/10/01 02:11:07;;;;;;;1.27;0.60;;;;;;;15.37;90.11;99811.25;4960789;28;20039;-74
2021/10/01 02:13:34;;;;;;;2.42;0.73;;;;;;;15.41;90.92;99815.03;4966146;28;20061;-76
2021/10/01 02:16:02;;;;;;;4.70;0.80;;;;;;;15.43;90.25;99810.00;4960629;28;20028;-75
2021/10/01 02:18:31;;;;;;;2.28;0.55;;;;;;;15.40;90.30;99802.38;4956654;28;20035;-76
2021/10/01 02:20:57;;;;;;;4.68;0.60;;;;;;;15.38;90.33;99795.56;4969319;28;20038;-76
2021/10/01 02:23:23;;;;;;;7.10;0.70;;;;;;;15.33;90.29;99789.06;4956378;28;20034;-76
2021/10/01 02:26:51;;;;;;;0.45;0.30;;;;;;;15.34;90.40;99785.16;4976131;28;20019;-77
2021/10/01 02:28:58;;;;;;;0.85;0.40;;;;;;;15.33;90.76;99789.06;4953592;28;20043;-76
2021/10/01 02:31:32;;;;;;;2.70;0.50;;;;;;;15.34;90.45;99804.44;4959284;28;20031;-75
2021/10/01 02:34:02;;;;;;;1.77;0.65;;;;;;;15.39;90.63;99777.88;4962071;28;20073;-77
2021/10/01 02:36:29;;;;;;;1.90;0.50;;;;;;;15.43;90.60;99776.13;4973003;28;20047;-74
2021/10/01 02:38:54;;;;;;;1.05;0.47;;;;;;;15.42;90.37;99772.56;4974086;28;20517;-76
2021/10/01 02:41:20;;;;;;;0.40;0.40;;;;;;;15.38;90.43;99757.81;4957128;28;20043;-76
2021/10/01 02:43:45;;;;;;;0.52;0.25;;;;;;;15.34;90.41;99781.59;4975049;28;20023;-76
2021/10/01 02:46:11;;;;;;;0.75;0.63;;;;;;;15.34;90.70;99752.09;4976290;28;20026;-75
2021/10/01 02:48:37;;;;;;;2.90;0.32;;;;;;;15.39;90.54;99739.31;4963521;28;20018;-75
2021/10/01 02:51:08;;;;;;;2.38;0.32;;;;;;;15.41;90.27;99746.16;4955547;28;20057;-73
2021/10/01 02:53:59;;;;;;;0.50;0.20;;;;;;;15.38;90.70;99751.50;4965849;28;20054;-74
2021/10/01 02:56:32;;;;;;;2.40;0.77;;;;;;;15.40;90.55;99727.19;4973846;28;20030;-75
2021/10/01 02:59:01;;;;;;;1.85;0.20;;;;;;;15.45;90.17;99738.88;4967177;28;20436;-75
2021/10/01 03:01:29;;;;;;;1.95;0.30;;;;;;;15.44;90.40;99717.97;4967323;28;20114;-74
2021/10/01 03:04:02;;;;;;;0.73;0.30;;;;;;;15.36;90.98;99733.31;4961113;28;20027;-74
2021/10/01 03:06:32;;;;;;;3.50;0.32;;;;;;;15.39;91.36;99703.50;4963588;28;20031;-74
2021/10/01 03:08:58;;;;;;;1.25;0.30;;;;;;;15.46;90.79;99704.72;4944840;28;20127;-73
2021/10/01 03:11:28;;;;;;;2.85;0.47;;;;;;;15.43;91.47;99694.28;4955201;28;20467;-74
2021/10/01 03:13:54;;;;;;;1.85;0.40;;;;;;;15.37;91.87;99714.84;4953723;28;20025;-73
2021/10/01 03:16:22;;;;;;;2.15;1.27;;;;;;;15.38;91.74;99716.47;4951045;28;20121;-73
2021/10/01 03:18:49;;;;;;;3.25;0.80;;;;;;;15.38;91.62;99691.69;4969128;28;20027;-72
2021/10/01 03:21:17;;;;;;;1.42;0.63;;;;;;;15.37;91.48;99687.31;4968612;28;20031;-74
2021/10/01 03:23:44;;;;;;;7.13;0.57;;;;;;;15.30;91.31;99700.72;4955882;28;20088;-74
2021/10/01 03:26:11;;;;;;;2.13;0.68;;;;;;;15.27;91.13;99687.56;4949915;28;20038;-73
2021/10/01 03:28:37;;;;;;;8.55;1.52;;;;;;;15.22;90.99;99704.25;4944377;28;20023;-73
2021/10/01 03:31:04;;;;;;;9.77;2.30;;;;;;;15.17;91.30;99674.88;4973406;28;20030;-74
2021/10/01 03:33:30;;;;;;;7.35;1.15;;;;;;;15.24;91.21;99721.25;4940604;28;20043;-73
2021/10/01 03:35:56;;;;;;;7.38;1.08;;;;;;;15.16;91.58;99696.09;4952385;28;20043;-75
2021/10/01 03:38:23;;;;;;;6.07;0.95;;;;;;;15.27;91.41;99693.06;4956233;28;20049;-76
2021/10/01 03:40:50;;;;;;;10.00;1.95;;;;;;;15.24;91.25;99696.47;4967784;28;20584;-75
2021/10/01 03:43:16;;;;;;;7.45;1.17;;;;;;;15.28;90.89;99697.47;4971778;28;20042;-74
2021/10/01 03:45:42;;;;;;;5.43;0.93;;;;;;;15.24;91.09;99686.25;4967906;28;20117;-74
2021/10/01 03:48:10;;;;;;;9.32;1.02;;;;;;;15.33;90.90;99683.53;4965922;28;20023;-74
2021/10/01 03:50:37;;;;;;;2.70;0.88;;;;;;;15.33;90.78;99678.88;4971343;28;20147;-74
2021/10/01 03:53:03;;;;;;;3.00;0.65;;;;;;;15.28;90.65;99675.44;4966309;28;20031;-75
2021/10/01 03:55:29;;;;;;;1.33;0.43;;;;;;;15.24;90.67;99677.19;4967569;28;20382;-75
2021/10/01 03:57:55;;;;;;;2.80;0.30;;;;;;;15.21;90.76;99686.09;4971100;28;20066;-76
2021/10/01 04:00:21;;;;;;;1.05;0.22;;;;;;;15.19;90.47;99673.44;4956168;28;20433;-77
2021/10/01 04:02:47;;;;;;;4.55;1.27;;;;;;;15.18;89.97;99698.53;4951150;28;20167;-73
2021/10/01 04:05:14;;;;;;;0.85;0.45;;;;;;;15.10;89.98;99689.09;4951136;28;20031;-74
2021/10/01 04:07:39;;;;;;;2.63;0.47;;;;;;;15.05;89.93;99683.72;4970689;28;20103;-74
2021/10/01 04:10:06;;;;;;;2.35;0.65;;;;;;;15.08;89.80;99688.59;4966634;28;20438;-76
2021/10/01 04:12:32;;;;;;;5.60;0.82;;;;;;;15.02;89.43;99698.09;4973295;28;20049;-73
2021/10/01 04:14:58;;;;;;;5.93;0.85;;;;;;;15.03;89.47;99719.00;4955206;28;20027;-75
2021/10/01 04:17:23;;;;;;;1.25;0.50;;;;;;;15.06;89.19;99693.59;4954190;28;20046;-75
2021/10/01 04:19:49;;;;;;;6.30;0.73;;;;;;;15.03;89.03;99724.53;4974494;28;20497;-76
2021/10/01 04:22:16;;;;;;;4.40;0.45;;;;;;;15.08;89.48;99705.09;4960865;28;20528;-74
2021/10/01 04:24:41;;;;;;;2.22;0.85;;;;;;;15.08;89.21;99705.09;4957570;28;20031;-76
2021/10/01 04:27:07;;;;;;;10.38;0.90;;;;;;;15.12;88.92;99706.09;4960867;28;20089;-75
2021/10/01 04:29:32;;;;;;;4.60;0.80;;;;;;;15.20;88.46;99701.81;4980078;28;20030;-76
2021/10/01 04:31:58;;;;;;;4.75;0.98;;;;;;;15.10;88.60;99697.34;4977111;28;20019;-80
2021/10/01 04:34:23;;;;;;;5.90;0.50;;;;;;;15.14;88.60;99714.88;4943695;28;20037;-76
2021/10/01 04:36:49;;;;;;;3.08;0.68;;;;;;;15.15;88.51;99705.47;4972741;28;20051;-77
2021/10/01 04:39:15;;;;;;;5.97;0.57;;;;;;;15.17;88.71;99697.72;4978682;28;20086;-76
2021/10/01 04:41:41;;;;;;;5.22;1.15;;;;;;;15.16;88.58;99698.84;4981583;28;20034;-76
2021/10/01 04:44:08;;;;;;;2.47;0.68;;;;;;;15.16;88.69;99707.09;4978447;28;20026;-76
2021/10/01 04:46:34;;;;;;;10.77;1.10;;;;;;;15.23;88.48;99683.81;4981252;28;20049;-76
2021/10/01 04:48:59;;;;;;;3.15;0.70;;;;;;;15.16;88.17;99712.63;4974294;28;20030;-75
2021/10/01 04:51:25;;;;;;;15.80;0.90;;;;;;;15.15;88.08;99677.13;4957880;28;20058;-75
2021/10/01 04:53:50;;;;;;;3.50;0.90;;;;;;;15.22;88.00;99683.00;4959688;28;20081;-75
2021/10/01 04:56:16;;;;;;;4.47;0.90;;;;;;;15.15;88.07;99694.47;4972480;28;20034;-74
2021/10/01 04:58:42;;;;;;;4.10;1.08;;;;;;;15.14;87.97;99684.59;4960002;28;20125;-75
2021/10/01 05:01:07;;;;;;;7.20;0.98;;;;;;;15.14;87.90;99675.50;4957325;28;20393;-75
2021/10/01 05:03:32;;;;;;;5.70;1.45;;;;;;;15.17;87.91;99681.22;4946985;28;20034;-75
2021/10/01 05:05:58;;;;;;;7.32;1.00;;;;;;;15.12;87.61;99666.75;4957705;28;20038;-76
2021/10/01 05:08:23;;;;;;;7.18;1.25;;;;;;;15.14;87.27;99667.25;4957471;28;20030;-75
2021/10/01 05:10:49;;;;;;;8.48;1.23;;;;;;;15.15;87.40;99666.94;4960575;28;20035;-75
2021/10/01 05:13:14;;;;;;;7.20;0.93;;;;;;;15.08;87.65;99661.03;4980528;28;20045;-75
2021/10/01 05:15:42;;;;;;;5.53;1.02;;;;;;;15.13;87.13;99665.63;4960886;28;20033;-75
2021/10/01 05:18:28;;;;;;;10.45;1.40;;;;;;;15.13;86.91;99680.22;4969424;28;20348;-74
2021/10/01 05:21:13;;;;;;;7.82;1.75;;;;;;;15.01;87.00;99677.22;4938557;28;20031;-72
2021/10/01 05:23:38;;;;;;;6.22;1.00;;;;;;;15.00;87.00;99664.59;4954640;28;20046;-73
2021/10/01 05:26:04;;;;;;;10.80;1.10;;;;;;;14.97;87.11;99681.72;4960824;28;20061;-73
2021/10/01 05:28:32;;;;;;;6.78;0.88;;;;;;;14.93;87.15;99692.53;4975427;28;20061;-72
2021/10/01 05:30:57;;;;;;;9.13;1.33;;;;;;;14.93;87.36;99672.47;4977415;28;20027;-74
2021/10/01 05:33:23;;;;;;;11.15;1.60;;;;;;;14.93;87.45;99666.97;4967588;28;20072;-73
2021/10/01 05:35:49;;;;;;;14.00;1.50;;;;;;;14.84;87.07;99666.91;4944417;28;20117;-73
2021/10/01 05:38:15;;;;;;;8.05;1.50;;;;;;;14.90;86.95;99682.16;4958280;28;20034;-73
2021/10/01 05:40:41;;;;;;;7.65;0.85;;;;;;;14.86;87.02;99672.91;4976921;28;20031;-73
2021/10/01 05:43:06;;;;;;;5.75;1.05;;;;;;;14.81;86.83;99684.84;4960327;28;20366;-74
2021/10/01 05:45:57;;;;;;;5.07;1.23;;;;;;;14.86;86.99;99669.34;4980176;28;20101;-77
2021/10/01 05:48:25;;;;;;;10.18;1.40;;;;;;;14.86;87.05;99672.09;4939814;28;20087;-78
2021/10/01 05:50:55;;;;;;;9.15;1.30;;;;;;;14.87;87.12;99681.97;4971247;28;20053;-78
2021/10/01 05:56:12;;;;;;;7.90;1.40;;;;;;;14.87;87.17;99681.97;4968209;28;20099;-77
2021/10/01 05:58:40;;;;;;;9.07;1.65;;;;;;;14.81;86.62;99668.34;4980154;28;20061;-78
2021/10/01 06:01:08;;;;;;;14.25;2.25;;;;;;;14.88;86.71;99672.59;4978343;28;20092;-77
2021/10/01 06:03:34;;;;;;;15.07;1.75;;;;;;;14.96;86.30;99680.09;4977022;28;20053;-78
2021/10/01 06:06:00;;;;;;;2.50;0.80;;;;;;;15.00;85.98;99681.09;4968759;28;20018;-78
2021/10/01 06:08:25;;;;;;;8.07;1.48;;;;;;;14.99;85.85;99676.72;4981267;28;20027;-79
2021/10/01 06:10:51;;;;;;;6.63;0.82;;;;;;;15.02;85.50;99676.06;4940890;28;20134;-76
2021/10/01 06:13:17;;;;;;;7.72;1.50;;;;;;;15.05;85.48;99683.72;4976370;28;20110;-72
2021/10/01 06:15:44;;;;;;;11.05;2.47;;;;;;;14.88;85.98;99689.09;4957691;28;20031;-75
2021/10/01 06:18:09;;;;;;;10.50;2.00;;;;;;;14.90;85.84;99689.63;4966633;28;20361;-76
2021/10/01 06:20:35;;;;;;;7.55;1.48;;;;;;;14.83;86.05;99688.13;4937350;28;20038;-71
2021/10/01 06:23:00;;;;;;;10.48;1.33;;;;;;;14.81;86.26;99692.31;4978263;28;20039;-72
2021/10/01 06:25:26;;;;;;;9.25;1.40;;;;;;;14.78;86.07;99696.47;4973232;28;20038;-72
2021/10/01 06:27:52;;;;;;;6.88;1.00;;;;;;;14.80;86.09;99674.97;4964161;28;20027;-73
2021/10/01 06:30:18;;;;;;;6.80;1.60;;;;;;;14.80;86.08;99658.44;4978365;28;20077;-74
2021/10/01 06:32:44;;;;;;;8.23;1.13;;;;;;;14.80;85.91;99661.19;4986794;28;20085;-74
2021/10/01 06:35:09;;;;;;;6.80;0.93;;;;;;;14.81;86.20;99662.03;4961615;28;20055;-72
2021/10/01 06:37:36;;;;;;;10.63;0.93;;;;;;;14.79;85.99;99665.09;4977130;28;20046;-73
2021/10/01 06:40:03;;;;;;;6.03;1.27;;;;;;;14.81;85.86;99657.31;4956073;28;20556;-73
2021/10/01 06:42:29;;;;;;;11.70;1.00;;;;;;;14.82;85.83;99656.22;4963316;28;20034;-72
2021/10/01 06:44:56;;;;;;;7.00;1.83;;;;;;;14.92;85.52;99668.06;4981685;28;20053;-74
2021/10/01 08:21:42;;;;;;;1.27;0.63;;;;;;;15.74;78.28;99761.56;4964671;28;20038;-72
2021/10/01 08:24:08;;;;;;;0.45;0.35;;;;;;;16.11;78.23;99762.25;4955189;28;20529;-73
2021/10/01 08:26:38;;;;;;;0.22;0.10;;;;;;;16.24;76.86;99764.06;4984159;28;20098;-72
2021/10/01 08:29:06;;;;;;;0.43;0.10;;;;;;;16.28;76.16;99755.94;4970735;28;20014;-70
2021/10/01 08:31:34;;;;;;;0.38;0.15;;;;;;;16.69;74.67;99774.03;4979610;28;20050;-72
2021/10/01 08:34:00;;;;;;;0.60;0.10;;;;;;;17.39;73.22;99771.28;4961156;28;20031;-70
2021/10/01 08:36:25;;;;;;;0.28;0.22;;;;;;;17.91;71.29;99776.72;4956377;28;20050;-70
2021/10/01 08:38:56;;;;;;;0.35;0.22;;;;;;;18.08;69.78;99775.84;4962109;28;20133;-71
2021/10/01 08:41:24;;;;;;;5.53;0.25;;;;;;;18.16;68.04;99774.16;4980814;28;20031;-71
2021/10/01 08:43:56;;;;;;;0.43;0.20;;;;;;;18.19;68.20;99770.72;4941753;28;20043;-73
2021/10/01 08:46:29;;;;;;;0.25;0.10;;;;;;;18.20;67.94;99777.91;4975338;28;20035;-72
2021/10/01 08:48:58;;;;;;;0.22;0.10;;;;;;;18.08;67.74;99775.84;4953752;28;20042;-72
2021/10/01 08:51:25;;;;;;;0.55;0.10;;;;;;;18.06;68.34;99777.31;4964007;28;20054;-70
2021/10/01 08:53:52;;;;;;;0.95;0.20;;;;;;;17.97;67.53;99780.09;4938262;28;20135;-70
2021/10/01 08:56:19;;;;;;;0.50;0.15;;;;;;;17.83;69.24;99772.00;4973127;28;20070;-70
2021/10/01 08:58:45;;;;;;;0.20;0.10;;;;;;;17.72;69.46;99776.28;4947480;28;20253;-71
2021/10/01 09:01:11;;;;;;;4.90;0.25;;;;;;;17.48;68.56;99774.88;4943456;28;20038;-74
2021/10/01 09:03:40;;;;;;;5.60;0.40;;;;;;;17.23;68.46;99773.75;4955352;28;20410;-72
2021/10/01 09:06:07;;;;;;;4.22;0.22;;;;;;;17.05;68.99;99768.22;4950876;28;20022;-72
2021/10/01 09:08:46;;;;;;;1.95;1.00;;;;;;;16.95;68.52;99778.81;4960337;28;20129;-71
2021/10/01 09:11:14;;;;;;;1.90;0.40;;;;;;;17.07;69.97;99790.84;4947246;28;20039;-74
2021/10/01 09:13:41;;;;;;;0.30;0.10;;;;;;;17.25;69.08;99794.41;4940699;29;20039;-70
2021/10/01 09:16:08;;;;;;;1.48;0.70;;;;;;;17.46;68.39;99810.28;4956020;28;20035;-69
2021/10/01 09:18:37;;;;;;;0.47;0.35;;;;;;;17.75;66.80;99783.91;4974090;28;20481;-70
2021/10/01 09:21:17;;;;;;;1.55;0.30;;;;;;;17.97;65.84;99782.88;4958473;28;20038;-72
2021/10/01 09:23:54;;;;;;;0.98;0.38;;;;;;;18.08;63.98;99788.88;4961736;28;20022;-70
2021/10/01 09:26:22;;;;;;;1.58;0.60;;;;;;;18.14;65.42;99801.38;4970114;28;20023;-68
2021/10/01 09:28:50;;;;;;;4.50;0.30;;;;;;;18.60;64.59;99791.34;4967382;28;20031;-70
2021/10/01 09:31:29;;;;;;;0.43;0.20;;;;;;;18.93;63.12;99787.88;4974171;28;20133;-72
2021/10/01 09:33:56;;;;;;;1.80;0.40;;;;;;;19.16;64.03;99785.56;4952654;28;20022;-71
2021/10/01 09:36:22;;;;;;;2.92;0.47;;;;;;;19.53;60.66;99782.13;4977154;28;20050;-71
2021/10/01 09:38:47;;;;;;;4.65;0.15;;;;;;;20.28;59.68;99783.91;4953063;28;20022;-69
2021/10/01 09:41:25;;;;;;;0.70;0.30;;;;;;;21.13;56.35;99784.13;4960744;28;20030;-69
2021/10/01 09:44:13;;;;;;;0.80;0.20;;;;;;;22.10;55.35;99795.06;4954192;28;20031;-71
2021/10/01 09:46:53;;;;;;;0.77;0.20;;;;;;;22.28;51.63;99781.59;4959356;28;20456;-71
2021/10/01 09:49:33;;;;;;;0.40;0.17;;;;;;;22.64;52.52;99792.78;4980811;28;20062;-73
2021/10/01 09:52:07;;;;;;;1.50;0.25;;;;;;;22.67;51.55;99792.88;4965477;28;20029;-71
2021/10/01 09:54:48;;;;;;;;;;;;;;;;;;;;;
2021/10/01 09:57:14;;;;;;;0.40;0.20;;;;;;;21.56;52.46;99793.66;4975477;28;20094;-75
2021/10/01 09:59:58;;;;;;;1.13;0.40;;;;;;;21.24;54.16;99796.31;4948794;28;20043;-73
2021/10/01 10:02:27;;;;;;;0.40;0.20;;;;;;;20.95;54.90;99800.25;4951354;28;20027;-74
2021/10/01 10:04:56;;;;;;;2.03;0.80;;;;;;;20.70;53.21;99785.59;4936457;28;20059;-71
2021/10/01 10:07:28;;;;;;;0.45;0.15;;;;;;;20.54;53.80;99802.16;4962042;28;20062;-73
2021/10/01 10:10:01;;;;;;;0.98;0.40;;;;;;;20.29;53.53;99799.38;4961970;28;20026;-73
2021/10/01 10:13:00;;;;;;;2.80;0.30;;;;;;;20.09;55.17;99797.53;4949601;28;20026;-73
2021/10/01 10:19:25;;;;;;;1.63;0.45;;;;;;;20.39;54.21;99785.03;4950298;28;20042;-73
2021/10/01 10:22:19;;;;;;;;;;;;;;;;;;;;;
2021/10/01 10:25:16;;;;;;;0.28;0.20;;;;;;;20.43;55.20;99807.38;4967013;28;20043;-73
2021/10/01 10:27:42;;;;;;;1.88;0.45;;;;;;;20.93;51.92;99785.91;4948068;28;20054;-72
2021/10/01 10:30:21;;;;;;;;;;;;;;;;;;;;;
2021/10/01 10:32:47;;;;;;;1.35;0.52;;;;;;;21.48;50.12;99804.94;4973022;28;20031;-74
2021/10/01 10:35:12;;;;;;;6.82;0.47;;;;;;;21.28;48.83;99804.78;4960541;28;20065;-71
2021/10/01 10:37:58;;;;;;;;;;;;;;;;;;;;;
2021/10/01 10:40:27;;;;;;;2.70;0.73;;;;;;;20.59;49.37;99793.59;4958879;28;20045;-70
2021/10/01 10:43:03;;;;;;;0.80;0.40;;;;;;;20.36;50.17;99804.38;4947241;28;20110;-73
2021/10/01 10:45:38;;;;;;;5.05;0.50;;;;;;;19.97;49.70;99801.91;4969457;28;20093;-71
2021/10/01 10:48:18;;;;;;;0.50;0.30;;;;;;;19.52;50.71;99797.13;4958495;28;20047;-73
2021/10/01 10:50:50;;;;;;;2.00;0.38;;;;;;;19.25;51.66;99810.44;4953205;28;20587;-72
2021/10/01 10:53:32;;;;;;;1.17;0.50;;;;;;;19.12;51.99;99795.72;4962302;28;20015;-71
2021/10/01 10:56:02;;;;;;;0.28;0.20;;;;;;;19.09;52.46;99801.13;4979731;28;20033;-70
2021/10/01 10:58:30;;;;;;;1.55;0.20;;;;;;;18.96;52.42;99789.97;4975631;28;20023;-74
2021/10/01 11:01:15;;;;;;;0.82;0.30;;;;;;;18.94;53.21;99789.50;4960126;28;20031;-72
2021/10/01 11:03:43;;;;;;;1.20;0.50;;;;;;;18.88;53.08;99796.41;4958543;28;20037;-74
2021/10/01 11:06:13;;;;;;;1.08;0.43;;;;;;;18.80;53.40;99805.56;4964695;28;20020;-71
2021/10/01 11:08:47;;;;;;;3.20;0.77;;;;;;;18.46;54.04;99794.34;4964327;28;20429;-73
2021/10/01 11:11:40;;;;;;;0.55;0.30;;;;;;;18.39;54.26;99807.91;4980451;28;20065;-73
2021/10/01 11:14:16;;;;;;;3.33;0.50;;;;;;;18.26;55.85;99815.28;4984436;28;20073;-72
2021/10/01 11:17:14;;;;;;;1.58;0.50;;;;;;;18.77;57.07;99820.06;4981783;28;20054;-72
2021/10/01 11:19:49;;;;;;;1.23;0.30;;;;;;;20.59;53.37;99818.59;4986152;28;20037;-72
2021/10/01 11:29:43;;;;;;;;;;;;;;;;;;;;;
2021/10/01 11:32:57;;;;;;;0.75;0.30;;;;;;;27.64;33.42;99820.88;4966497;28;20703;-73
2021/10/01 11:35:45;;;;;;;1.15;0.68;;;;;;;27.55;32.64;99823.25;4937936;28;20052;-73
2021/10/01 11:41:49;;;;;;;1.45;0.40;;;;;;;27.25;35.72;99810.28;4913714;29;20159;-74
2021/10/01 11:49:17;;;;;;;;;;;;;;;;;;;;;
2021/10/01 11:51:26;;;;;;;3.70;0.85;;;;;;;28.96;29.42;99826.94;4897089;28;20032;-71
2021/10/01 11:54:14;;;;;;;1.05;0.52;;;;;;;27.11;30.61;99813.03;4948377;28;20038;-70
2021/10/01 11:56:53;;;;;;;6.60;0.75;;;;;;;24.95;34.41;99819.38;4957199;28;20030;-71
2021/10/01 11:59:29;;;;;;;;;;;;;;;;;;;;;
2021/10/01 12:02:05;;;;;;;1.92;0.45;;;;;;;22.25;40.76;99806.56;4964749;28;20113;-74
2021/10/01 12:14:31;;;;;;;1.17;0.40;;;;;;;25.52;36.79;99827.72;4981330;28;20054;-74
2021/10/01 12:17:09;;;;;;;3.70;0.30;;;;;;;25.29;36.98;99839.00;4973788;28;20027;-73
2021/10/01 12:19:35;;;;;;;1.88;0.73;;;;;;;24.18;37.69;99838.94;4967320;28;20038;-74
2021/10/01 12:22:07;;;;;;;1.00;0.47;;;;;;;23.13;39.81;99834.13;4981341;28;20039;-74
2021/10/01 12:24:54;;;;;;;4.60;0.57;;;;;;;22.37;41.77;99839.94;4971840;28;20388;-75
2021/10/01 12:27:32;;;;;;;0.75;0.30;;;;;;;21.56;42.77;99851.28;4986537;28;20073;-76
2021/10/01 12:29:58;;;;;;;3.45;0.50;;;;;;;20.88;44.41;99855.59;4965227;28;20026;-76
2021/10/01 12:32:24;;;;;;;1.90;0.60;;;;;;;20.31;45.31;99849.00;4963413;28;20111;-76
2021/10/01 12:35:11;;;;;;;1.75;0.70;;;;;;;20.03;47.26;99839.38;4952093;28;20034;-76
2021/10/01 12:37:40;;;;;;;1.45;0.55;;;;;;;20.10;47.27;99832.47;4991144;28;20108;-76
2021/10/01 12:40:07;;;;;;;2.17;0.38;;;;;;;20.81;45.64;99847.06;4979530;28;20039;-73
2021/10/01 12:42:36;;;;;;;1.95;0.70;;;;;;;21.52;44.57;99844.81;4963508;28;20031;-74
2021/10/01 12:45:13;;;;;;;2.30;0.50;;;;;;;22.10;42.61;99849.94;4981652;28;20030;-73
2021/10/01 12:47:42;;;;;;;2.20;0.50;;;;;;;22.77;40.30;99858.38;4986579;28;20113;-75
2021/10/01 12:50:10;;;;;;;1.08;0.50;;;;;;;22.91;40.47;99862.66;4983811;28;20027;-73
2021/10/01 12:52:45;;;;;;;5.65;0.93;;;;;;;23.05;40.26;99868.56;4986671;28;20509;-74
2021/10/01 12:55:13;;;;;;;8.15;0.70;;;;;;;24.00;38.91;99863.75;4979684;28;20030;-74
2021/10/01 12:57:45;;;;;;;3.58;0.90;;;;;;;24.32;36.96;99849.56;4980107;28;20042;-75
2021/10/01 13:00:22;;;;;;;2.13;0.68;;;;;;;24.03;37.70;99854.63;4954271;28;20041;-74
2021/10/01 13:03:03;;;;;;;1.88;0.80;;;;;;;23.36;36.24;99861.28;4986406;28;20030;-74
2021/10/01 13:05:35;;;;;;;5.80;0.95;;;;;;;22.20;38.66;99856.97;4979438;28;20106;-76
2021/10/01 13:08:03;;;;;;;1.98;0.73;;;;;;;21.63;41.24;99851.50;4985804;28;20046;-77
2021/10/01 13:10:41;;;;;;;2.20;0.57;;;;;;;21.22;39.90;99839.56;4979235;28;20026;-77
2021/10/01 13:13:12;;;;;;;1.80;0.30;;;;;;;20.73;37.75;99843.25;4983294;28;20026;-75
2021/10/01 13:15:40;;;;;;;2.72;0.90;;;;;;;20.71;38.04;99851.94;4968210;28;20038;-76
2021/10/01 13:18:28;;;;;;;6.20;0.80;;;;;;;21.31;37.55;99858.88;4975852;28;20037;-77
2021/10/01 13:21:05;;;;;;;1.73;0.30;;;;;;;21.71;36.83;99864.44;4973062;28;20445;-76
2021/10/01 13:23:41;;;;;;;3.72;0.52;;;;;;;22.46;35.29;99873.97;4985361;28;20044;-77
2021/10/01 13:26:16;;;;;;;4.47;0.82;;;;;;;22.91;34.12;99857.91;4983232;28;20042;-78
2021/10/01 13:28:45;;;;;;;1.33;0.25;;;;;;;23.15;34.22;99861.66;4986620;28;20023;-76
2021/10/01 13:31:13;;;;;;;6.43;0.43;;;;;;;22.80;32.99;99868.81;4968506;28;20788;-77
2021/10/01 13:33:39;;;;;;;5.93;0.40;;;;;;;23.25;32.04;99869.44;4971099;28;20030;-76
2021/10/01 13:36:04;;;;;;;2.65;0.68;;;;;;;24.60;29.71;99876.38;4961950;28;20211;-76
2021/10/01 13:38:42;;;;;;;0.45;0.40;;;;;;;25.17;29.69;99887.59;4957140;28;20043;-77
2021/10/01 13:41:09;;;;;;;2.03;0.60;;;;;;;25.57;28.91;99884.16;4954819;28;20085;-77
2021/10/01 13:43:36;;;;;;;1.33;0.40;;;;;;;26.42;26.07;99901.50;4970877;28;20018;-76
2021/10/01 13:46:03;;;;;;;1.48;0.40;;;;;;;27.25;25.48;99910.50;4987063;28;20090;-75
2021/10/01 13:48:29;;;;;;;1.33;0.35;;;;;;;28.07;23.96;99909.28;4951287;28;20027;-76
2021/10/01 13:50:55;;;;;;;0.52;0.50;;;;;;;28.46;23.37;99900.09;4970498;28;20453;-76
2021/10/01 13:53:24;;;;;;;2.00;0.50;;;;;;;28.86;22.20;99890.44;4982499;28;20031;-77
2021/10/01 13:55:50;;;;;;;2.38;0.45;;;;;;;28.86;21.48;99881.22;4969049;28;20082;-76
2021/10/01 13:58:16;;;;;;;2.25;0.50;;;;;;;29.00;22.33;99902.88;4972071;28;20069;-76
2021/10/01 14:00:42;;;;;;;5.82;1.02;;;;;;;29.21;23.14;99893.59;4968025;28;20026;-76
2021/10/01 14:03:11;;;;;;;0.28;0.13;;;;;;;29.96;22.26;99900.97;4964091;28;20058;-76